createdAt,value
2019-05-11T17:29:48.852Z,63.67
2019-05-11T17:30:48.689Z,66.11
2019-05-11T17:32:30.355Z,65.50
2019-05-11T17:33:30.354Z,65.30
2019-05-11T17:34:30.318Z,65.50
2019-05-11T17:35:30.301Z,65.70
2019-05-11T17:36:30.290Z,65.80
2019-05-11T17:37:30.303Z,64.96
2019-05-11T17:38:39.185Z,65.06
2019-05-11T17:40:12.385Z,64.45
2019-05-11T17:41:11.921Z,65.30
2019-05-11T17:42:11.907Z,64.89
2019-05-11T17:43:11.889Z,62.82
2019-05-11T17:44:11.881Z,63.33
2019-05-11T17:45:11.862Z,62.62
2019-05-11T17:46:11.874Z,62.82
2019-05-11T17:47:11.847Z,63.36
2019-05-11T17:48:11.833Z,63.02
2019-05-11T17:49:11.849Z,62.32
2019-05-11T17:50:11.813Z,62.41
2019-05-11T17:51:21.371Z,62.41
2019-05-11T17:52:12.789Z,63.02
2019-05-11T17:53:11.839Z,62.93
2019-05-11T17:54:11.765Z,62.52
2019-05-11T17:55:11.760Z,62.41
2019-05-11T17:56:11.750Z,63.54
2019-05-11T17:57:11.838Z,62.93
2019-05-11T17:58:11.746Z,62.52
2019-05-11T17:59:11.724Z,62.41
2019-05-11T18:00:11.705Z,62.32
2019-05-11T18:01:11.693Z,63.23
2019-05-11T18:02:11.688Z,62.93
2019-05-11T18:03:11.771Z,63.23
2019-05-11T18:04:11.670Z,63.16
2019-05-11T18:05:11.641Z,63.13
2019-05-11T18:06:11.711Z,63.02
2019-05-11T18:07:24.300Z,62.72
2019-05-11T18:08:12.618Z,63.02
2019-05-11T18:09:11.607Z,63.02
2019-05-11T18:10:11.626Z,63.84
2019-05-11T18:11:11.577Z,62.62
2019-05-11T18:12:11.577Z,63.43
2019-05-11T18:13:11.549Z,62.41
2019-05-11T18:14:11.628Z,62.55
2019-05-11T18:15:11.528Z,62.52
2019-05-11T18:16:11.534Z,63.02
2019-05-11T18:17:11.510Z,63.36
2019-05-11T18:18:11.519Z,63.64
2019-05-11T18:19:11.493Z,63.13
2019-05-11T18:20:17.295Z,63.57
2019-05-11T18:21:12.470Z,64.99
2019-05-11T18:22:11.463Z,65.09
2019-05-11T18:23:11.441Z,65.09
2019-05-11T18:24:11.431Z,64.99
2019-05-11T18:25:13.889Z,65.60
2019-05-11T18:26:11.412Z,65.50
2019-05-11T18:27:11.586Z,66.04
2019-05-11T18:28:14.152Z,67.46
2019-05-11T18:29:11.401Z,67.36
2019-05-11T18:30:11.409Z,66.96
2019-05-11T18:31:11.371Z,68.18
2019-05-11T18:32:11.363Z,66.99
2019-05-11T18:33:11.471Z,68.01
2019-05-11T18:34:11.336Z,67.90
2019-05-11T18:35:11.327Z,68.71
2019-05-11T18:36:11.373Z,69.12
2019-05-11T18:37:11.438Z,68.10
2019-05-11T18:38:11.689Z,67.69
2019-05-11T18:39:11.323Z,67.19
2019-05-11T18:40:11.327Z,67.60
2019-05-11T18:41:11.412Z,66.88
2019-05-11T18:42:11.266Z,66.14
2019-05-11T18:43:11.253Z,65.46
2019-05-11T18:44:11.352Z,66.38
2019-05-11T18:45:11.211Z,65.56
2019-05-11T18:46:11.193Z,64.81
2019-05-11T18:47:11.243Z,65.77
2019-05-11T18:48:11.277Z,65.43
2019-05-11T18:49:11.183Z,66.17
2019-05-11T18:50:11.240Z,65.05
2019-05-11T18:51:11.197Z,63.53
2019-05-11T18:52:11.177Z,63.73
2019-05-11T18:53:11.288Z,63.53
2019-05-11T18:54:11.280Z,65.16
2019-05-11T18:55:11.425Z,64.84
2019-05-11T18:56:11.156Z,63.83
2019-05-11T18:57:11.108Z,63.49
2019-05-11T18:58:11.152Z,63.53
2019-05-11T18:59:11.097Z,63.09
2019-05-11T19:00:11.352Z,62.92
2019-05-11T19:01:11.248Z,62.81
2019-05-11T19:02:11.359Z,63.62
2019-05-11T19:03:11.204Z,63.83
2019-05-11T19:04:11.078Z,63.53
2019-05-11T19:05:11.353Z,62.98
2019-05-11T19:06:10.985Z,63.49
2019-05-11T19:07:16.715Z,62.37
2019-05-11T19:08:12.057Z,62.78
2019-05-11T19:09:10.995Z,63.29
2019-05-11T19:10:11.044Z,62.78
2019-05-11T19:11:10.915Z,62.58
2019-05-11T19:12:10.934Z,64.51
2019-05-11T19:13:10.927Z,63.39
2019-05-11T19:14:10.901Z,63.70
2019-05-11T19:15:10.886Z,63.80
2019-05-11T19:16:10.870Z,63.29
2019-05-11T19:17:10.944Z,62.98
2019-05-11T19:18:10.869Z,62.27
2019-05-11T19:19:10.899Z,62.07
2019-05-11T19:20:10.854Z,61.18
2019-05-11T19:21:10.820Z,60.98
2019-05-11T19:22:10.810Z,61.11
2019-05-11T19:23:10.821Z,61.11
2019-05-11T19:24:10.801Z,61.31
2019-05-11T19:25:10.858Z,61.82
2019-05-11T19:26:10.870Z,62.43
2019-05-11T19:27:11.119Z,63.35
2019-05-11T19:28:10.948Z,63.56
2019-05-11T19:29:10.843Z,63.56
2019-05-11T19:30:10.739Z,63.65
2019-05-11T19:31:11.152Z,62.81
2019-05-11T19:32:11.107Z,62.81
2019-05-11T19:33:11.200Z,60.37
2019-05-11T19:34:10.690Z,61.93
2019-05-11T19:35:10.711Z,60.98
2019-05-11T19:36:10.768Z,61.11
2019-05-11T19:37:10.708Z,60.16
2019-05-11T19:38:10.718Z,60.60
2019-05-11T19:39:10.616Z,61.00
2019-05-11T19:40:10.618Z,61.21
2019-05-11T19:41:10.727Z,61.21
2019-05-11T19:42:10.900Z,62.63
2019-05-11T19:43:10.681Z,61.79
2019-05-11T19:44:10.887Z,61.72
2019-05-11T19:45:10.857Z,60.91
2019-05-11T19:46:10.576Z,61.82
2019-05-11T19:47:10.585Z,62.23
2019-05-11T19:48:10.581Z,61.52
2019-05-11T19:49:10.615Z,62.23
2019-05-11T19:50:10.600Z,61.08
2019-05-11T19:51:11.996Z,60.80
2019-05-11T19:52:10.540Z,61.18
2019-05-11T19:53:10.647Z,61.11
2019-05-11T19:54:10.514Z,60.88
2019-05-11T19:55:10.515Z,61.82
2019-05-11T19:56:10.635Z,61.11
2019-05-11T19:57:10.482Z,61.31
2019-05-11T19:58:10.492Z,61.21
2019-05-11T19:59:10.480Z,61.38
2019-05-11T20:00:11.396Z,62.94
2019-05-11T20:01:10.441Z,61.11
2019-05-11T20:02:10.366Z,59.78
2019-05-11T20:03:10.475Z,59.28
2019-05-11T20:04:10.353Z,59.48
2019-05-11T20:05:10.343Z,59.58
2019-05-11T20:06:10.323Z,59.71
2019-05-11T20:07:10.339Z,59.30
2019-05-11T20:08:10.339Z,58.69
2019-05-11T20:09:10.308Z,58.49
2019-05-11T20:10:10.339Z,58.18
2019-05-11T20:11:10.364Z,57.70
2019-05-11T20:12:10.298Z,58.31
2019-05-11T20:13:10.304Z,57.50
2019-05-11T20:14:10.308Z,57.19
2019-05-11T20:15:10.238Z,57.19
2019-05-11T20:16:10.256Z,56.58
2019-05-11T20:17:10.256Z,56.17
2019-05-11T20:18:10.249Z,56.40
2019-05-11T20:19:10.172Z,56.20
2019-05-11T20:20:10.238Z,56.37
2019-05-11T20:21:18.673Z,56.60
2019-05-11T20:22:11.149Z,56.50
2019-05-11T20:23:10.195Z,56.50
2019-05-11T20:24:10.172Z,57.52
2019-05-11T20:25:10.111Z,55.79
2019-05-11T20:26:10.121Z,56.68
2019-05-11T20:27:10.112Z,56.81
2019-05-11T20:28:10.090Z,55.28
2019-05-11T20:29:10.064Z,55.69
2019-05-11T20:30:10.054Z,56.10
2019-05-11T20:31:10.051Z,55.89
2019-05-11T20:32:10.069Z,55.99
2019-05-11T20:33:10.026Z,56.50
2019-05-11T20:34:10.016Z,56.71
2019-05-11T20:35:10.015Z,55.87
2019-05-11T20:36:09.986Z,56.07
2019-05-11T20:37:09.992Z,55.99
2019-05-11T20:38:09.963Z,55.89
2019-05-11T20:39:09.967Z,54.13
2019-05-11T20:40:09.970Z,54.24
2019-05-11T20:41:09.974Z,53.62
2019-05-11T20:42:09.938Z,54.05
2019-05-11T20:43:09.931Z,54.67
2019-05-11T20:44:09.908Z,53.11
2019-05-11T20:45:09.901Z,53.14
2019-05-11T20:46:09.959Z,53.03
2019-05-11T20:47:09.877Z,51.30
2019-05-11T20:48:09.862Z,50.99
2019-05-11T20:49:09.859Z,51.10
2019-05-11T20:50:09.873Z,51.71
2019-05-11T20:51:09.836Z,51.68
2019-05-11T20:52:09.812Z,50.99
2019-05-11T20:53:09.807Z,49.05
2019-05-11T20:54:09.814Z,49.16
2019-05-11T20:55:09.792Z,50.28
2019-05-11T20:56:09.771Z,49.34
2019-05-11T20:57:09.756Z,48.03
2019-05-11T20:58:09.750Z,48.85
2019-05-11T20:59:09.738Z,47.12
2019-05-11T21:00:09.755Z,48.14
2019-05-11T21:01:09.722Z,48.03
2019-05-11T21:02:09.709Z,48.03
2019-05-11T21:03:09.707Z,47.12
2019-05-11T21:04:09.749Z,47.94
2019-05-11T21:05:09.686Z,48.14
2019-05-11T21:06:09.717Z,48.14
2019-05-11T21:07:09.707Z,48.14
2019-05-11T21:08:09.654Z,47.53
2019-05-11T21:09:09.624Z,47.00
2019-05-11T21:10:09.626Z,47.32
2019-05-11T21:11:18.076Z,47.63
2019-05-11T21:12:10.607Z,47.53
2019-05-11T21:13:09.616Z,46.61
2019-05-11T21:14:09.591Z,46.61
2019-05-11T21:15:09.608Z,46.41
2019-05-11T21:16:09.585Z,46.41
2019-05-11T21:17:09.682Z,44.08
2019-05-11T21:18:09.590Z,44.69
2019-05-11T21:19:09.533Z,44.49
2019-05-11T21:20:09.521Z,43.26
2019-05-11T21:21:09.502Z,43.16
2019-05-11T21:22:09.492Z,42.85
2019-05-11T21:23:09.509Z,43.47
2019-05-11T21:24:09.500Z,42.85
2019-05-11T21:25:09.466Z,43.57
2019-05-11T21:26:10.014Z,42.67
2019-05-11T21:27:09.473Z,43.79
2019-05-11T21:28:09.427Z,42.85
2019-05-11T21:29:09.438Z,43.37
2019-05-11T21:30:09.735Z,42.96
2019-05-11T21:31:09.445Z,44.08
2019-05-11T21:32:09.446Z,43.77
2019-05-11T21:33:09.367Z,43.06
2019-05-11T21:34:09.391Z,42.45
2019-05-11T21:35:09.555Z,42.76
2019-05-11T21:36:09.443Z,42.96
2019-05-11T21:37:09.323Z,43.26
2019-05-11T21:38:09.323Z,42.85
2019-05-11T21:39:09.354Z,42.76
2019-05-11T21:40:09.320Z,43.16
2019-05-11T21:41:09.342Z,42.96
2019-05-11T21:42:09.290Z,43.26
2019-05-11T21:43:09.311Z,43.16
2019-05-11T21:44:09.255Z,41.83
2019-05-11T21:45:09.777Z,40.81
2019-05-11T21:46:09.249Z,41.53
2019-05-11T21:47:09.215Z,42.14
2019-05-11T21:48:09.215Z,42.04
2019-05-11T21:49:09.212Z,42.35
2019-05-11T21:50:09.217Z,42.65
2019-05-11T21:51:09.167Z,42.35
2019-05-11T21:52:09.195Z,43.06
2019-05-11T21:53:10.623Z,43.57
2019-05-11T21:54:09.145Z,42.14
2019-05-11T21:55:09.829Z,43.08
2019-05-11T21:56:09.118Z,41.14
2019-05-11T21:57:09.129Z,42.14
2019-05-11T21:58:09.195Z,42.26
2019-05-11T21:59:09.121Z,42.14
2019-05-11T22:00:09.251Z,42.65
2019-05-11T22:01:09.072Z,42.16
2019-05-11T22:02:11.082Z,43.57
2019-05-11T22:03:10.376Z,42.85
2019-05-11T22:04:11.293Z,43.26
2019-05-11T22:05:09.007Z,42.26
2019-05-11T22:06:09.033Z,42.36
2019-05-11T22:07:09.057Z,42.06
2019-05-11T22:08:08.982Z,41.73
2019-05-11T22:09:09.184Z,42.24
2019-05-11T22:10:09.247Z,41.53
2019-05-11T22:11:08.936Z,42.35
2019-05-11T22:12:10.832Z,41.83
2019-05-11T22:13:09.006Z,42.96
2019-05-11T22:14:08.912Z,42.65
2019-05-11T22:15:09.512Z,42.06
2019-05-11T22:16:09.012Z,42.88
2019-05-11T22:17:08.911Z,42.77
2019-05-11T22:18:08.911Z,42.24
2019-05-11T22:19:09.129Z,43.29
2019-05-11T22:20:08.891Z,42.47
2019-05-11T22:21:08.883Z,42.97
2019-05-11T22:22:21.129Z,43.38
2019-05-11T22:23:09.847Z,43.29
2019-05-11T22:24:08.827Z,44.31
2019-05-11T22:25:08.945Z,43.16
2019-05-11T22:26:08.891Z,42.76
2019-05-11T22:27:08.791Z,43.90
2019-05-11T22:28:08.756Z,43.98
2019-05-11T22:29:08.772Z,44.08
2019-05-11T22:30:08.838Z,42.77
2019-05-11T22:31:08.717Z,44.18
2019-05-11T22:32:08.703Z,44.31
2019-05-11T22:33:08.945Z,44.71
2019-05-11T22:34:09.009Z,43.98
2019-05-11T22:35:08.673Z,44.38
2019-05-11T22:36:08.669Z,44.20
2019-05-11T22:37:08.774Z,45.02
2019-05-11T22:38:08.670Z,44.81
2019-05-11T22:39:08.647Z,45.02
2019-05-11T22:40:08.793Z,44.71
2019-05-11T22:41:09.171Z,44.92
2019-05-11T22:42:08.602Z,45.63
2019-05-11T22:43:09.475Z,45.73
2019-05-11T22:44:11.061Z,45.22
2019-05-11T22:45:08.816Z,45.02
2019-05-11T22:46:08.546Z,44.94
2019-05-11T22:47:09.062Z,46.14
2019-05-11T22:48:08.526Z,45.76
2019-05-11T22:49:08.633Z,45.84
2019-05-11T22:50:08.514Z,46.25
2019-05-11T22:51:08.486Z,46.45
2019-05-11T22:52:08.752Z,46.45
2019-05-11T22:53:11.379Z,46.45
2019-05-11T22:54:11.138Z,46.57
2019-05-11T22:55:11.603Z,45.76
2019-05-11T22:56:08.434Z,46.57
2019-05-11T22:57:08.440Z,46.88
2019-05-11T22:58:08.715Z,46.88
2019-05-11T22:59:08.447Z,47.08
2019-05-11T23:00:08.405Z,46.78
2019-05-11T23:01:08.607Z,47.29
2019-05-11T23:02:10.863Z,47.08
2019-05-11T23:03:11.001Z,46.47
2019-05-11T23:04:08.350Z,46.67
2019-05-11T23:05:08.831Z,47.60
2019-05-11T23:06:08.612Z,47.60
2019-05-11T23:07:08.303Z,47.60
2019-05-11T23:08:08.298Z,47.69
2019-05-11T23:09:08.291Z,48.21
2019-05-11T23:10:08.752Z,48.31
2019-05-11T23:11:10.461Z,47.80
2019-05-11T23:12:09.003Z,48.31
2019-05-11T23:13:11.128Z,48.31
2019-05-11T23:14:10.050Z,48.41
2019-05-11T23:15:08.230Z,48.41
2019-05-11T23:16:08.595Z,48.82
2019-05-11T23:17:08.261Z,48.00
2019-05-11T23:18:08.765Z,48.92
2019-05-11T23:19:09.723Z,48.00
2019-05-11T23:20:08.169Z,48.92
2019-05-11T23:21:08.748Z,48.74
2019-05-11T23:22:08.420Z,48.74
2019-05-11T23:23:08.881Z,48.84
2019-05-11T23:24:08.120Z,48.74
2019-05-11T23:25:08.172Z,48.94
2019-05-11T23:26:08.597Z,48.84
2019-05-11T23:27:08.134Z,48.74
2019-05-11T23:28:08.083Z,49.02
2019-05-11T23:29:08.284Z,49.13
2019-05-11T23:30:08.713Z,49.46
2019-05-11T23:31:09.027Z,49.22
2019-05-11T23:32:08.911Z,48.61
2019-05-11T23:33:08.123Z,48.82
2019-05-11T23:34:08.443Z,49.33
2019-05-11T23:35:08.484Z,49.33
2019-05-11T23:36:08.100Z,49.54
2019-05-11T23:37:08.094Z,49.33
2019-05-11T23:38:08.002Z,48.92
2019-05-11T23:39:08.985Z,49.22
2019-05-11T23:40:09.137Z,48.31
2019-05-11T23:41:08.368Z,48.72
2019-05-11T23:42:08.191Z,48.51
2019-05-11T23:43:08.791Z,49.43
2019-05-11T23:44:08.851Z,49.33
2019-05-11T23:45:08.533Z,49.13
2019-05-11T23:46:08.371Z,49.25
2019-05-11T23:47:07.865Z,49.22
2019-05-11T23:48:07.893Z,49.46
2019-05-11T23:49:08.788Z,49.55
2019-05-11T23:50:08.253Z,50.58
2019-05-11T23:51:08.746Z,50.17
2019-05-11T23:52:07.822Z,50.17
2019-05-11T23:53:10.083Z,50.78
2019-05-11T23:54:08.056Z,50.48
2019-05-11T23:55:08.326Z,50.48
2019-05-11T23:56:07.803Z,51.40
2019-05-11T23:57:09.313Z,51.81
2019-05-11T23:58:08.229Z,51.09
2019-05-11T23:59:08.239Z,52.42
